sensor_id;sensor_type;location;lat;lon;timestamp;temperature;humidity
21646;DHT22;10984;45.712;4.800;2022-10-26T00:01:07;19.00;99.90
21646;DHT22;10984;45.712;4.800;2022-10-26T00:03:34;18.90;99.90
21646;DHT22;10984;45.712;4.800;2022-10-26T00:06:19;18.80;99.90
21646;DHT22;10984;45.712;4.800;2022-10-26T00:08:46;18.80;99.90
21646;DHT22;10984;45.712;4.800;2022-10-26T00:11:12;18.80;99.90
21646;DHT22;10984;45.712;4.800;2022-10-26T00:13:39;18.70;99.90
21646;DHT22;10984;45.712;4.800;2022-10-26T00:16:26;18.70;99.90
21646;DHT22;10984;45.712;4.800;2022-10-26T00:18:52;18.80;99.90
21646;DHT22;10984;45.712;4.800;2022-10-26T00:21:18;18.70;99.90
21646;DHT22;10984;45.712;4.800;2022-10-26T00:23:44;18.70;99.90
21646;DHT22;10984;45.712;4.800;2022-10-26T00:26:10;18.70;99.90
21646;DHT22;10984;45.712;4.800;2022-10-26T00:28:36;18.70;99.90
21646;DHT22;10984;45.712;4.800;2022-10-26T00:31:13;18.60;99.90
21646;DHT22;10984;45.712;4.800;2022-10-26T00:33:39;18.50;99.90
21646;DHT22;10984;45.712;4.800;2022-10-26T00:36:05;18.40;99.90
21646;DHT22;10984;45.712;4.800;2022-10-26T00:38:33;18.40;99.90
21646;DHT22;10984;45.712;4.800;2022-10-26T00:40:59;18.30;99.90
21646;DHT22;10984;45.712;4.800;2022-10-26T00:49:15;17.90;99.90
21646;DHT22;10984;45.712;4.800;2022-10-26T00:52:03;17.90;99.90
21646;DHT22;10984;45.712;4.800;2022-10-26T00:54:28;17.70;99.90
21646;DHT22;10984;45.712;4.800;2022-10-26T00:56:54;17.70;99.90
21646;DHT22;10984;45.712;4.800;2022-10-26T00:59:21;17.70;99.90
21646;DHT22;10984;45.712;4.800;2022-10-26T01:01:48;17.60;99.90
21646;DHT22;10984;45.712;4.800;2022-10-26T01:04:14;17.50;99.90
21646;DHT22;10984;45.712;4.800;2022-10-26T01:06:41;17.50;99.90
21646;DHT22;10984;45.712;4.800;2022-10-26T01:09:08;17.40;99.90
21646;DHT22;10984;45.712;4.800;2022-10-26T01:11:34;17.40;99.90
21646;DHT22;10984;45.712;4.800;2022-10-26T01:14:01;17.30;99.90
21646;DHT22;10984;45.712;4.800;2022-10-26T01:27:52;17.20;99.90
21646;DHT22;10984;45.712;4.800;2022-10-26T01:39:35;17.10;99.90
21646;DHT22;10984;45.712;4.800;2022-10-26T01:42:04;17.00;99.90
21646;DHT22;10984;45.712;4.800;2022-10-26T01:47:36;17.10;99.90
21646;DHT22;10984;45.712;4.800;2022-10-26T01:50:03;17.00;99.90
21646;DHT22;10984;45.712;4.800;2022-10-26T01:52:30;17.00;99.90
21646;DHT22;10984;45.712;4.800;2022-10-26T02:09:55;16.90;99.90
21646;DHT22;10984;45.712;4.800;2022-10-26T02:20:51;16.80;99.90
21646;DHT22;10984;45.712;4.800;2022-10-26T02:23:19;16.80;99.90
21646;DHT22;10984;45.712;4.800;2022-10-26T02:25:49;16.70;99.90
21646;DHT22;10984;45.712;4.800;2022-10-26T02:28:19;16.70;99.90
21646;DHT22;10984;45.712;4.800;2022-10-26T02:30:49;16.70;99.90
21646;DHT22;10984;45.712;4.800;2022-10-26T02:33:18;16.70;99.90
21646;DHT22;10984;45.712;4.800;2022-10-26T02:35:49;16.60;99.90
21646;DHT22;10984;45.712;4.800;2022-10-26T02:38:17;16.60;99.90
21646;DHT22;10984;45.712;4.800;2022-10-26T02:40:45;16.60;99.90
21646;DHT22;10984;45.712;4.800;2022-10-26T02:43:14;16.60;99.90
21646;DHT22;10984;45.712;4.800;2022-10-26T02:45:50;16.60;99.90
21646;DHT22;10984;45.712;4.800;2022-10-26T02:48:17;16.60;99.90
21646;DHT22;10984;45.712;4.800;2022-10-26T02:51:27;16.60;99.90
21646;DHT22;10984;45.712;4.800;2022-10-26T02:59:29;16.40;99.90
21646;DHT22;10984;45.712;4.800;2022-10-26T03:01:56;16.40;99.90
21646;DHT22;10984;45.712;4.800;2022-10-26T03:04:41;16.40;99.90
21646;DHT22;10984;45.712;4.800;2022-10-26T03:07:06;16.40;99.90
21646;DHT22;10984;45.712;4.800;2022-10-26T03:09:32;16.40;99.90
21646;DHT22;10984;45.712;4.800;2022-10-26T03:11:58;16.40;99.90
21646;DHT22;10984;45.712;4.800;2022-10-26T03:14:23;16.40;99.90
21646;DHT22;10984;45.712;4.800;2022-10-26T03:16:49;16.40;99.90
21646;DHT22;10984;45.712;4.800;2022-10-26T03:19:15;16.40;99.90
21646;DHT22;10984;45.712;4.800;2022-10-26T03:21:41;16.40;99.90
21646;DHT22;10984;45.712;4.800;2022-10-26T03:24:07;16.40;99.90
21646;DHT22;10984;45.712;4.800;2022-10-26T03:26:33;16.30;99.90
21646;DHT22;10984;45.712;4.800;2022-10-26T03:28:59;16.30;99.90
21646;DHT22;10984;45.712;4.800;2022-10-26T03:31:25;16.30;99.90
21646;DHT22;10984;45.712;4.800;2022-10-26T03:33:50;16.30;99.90
21646;DHT22;10984;45.712;4.800;2022-10-26T03:36:16;16.30;99.90
21646;DHT22;10984;45.712;4.800;2022-10-26T03:38:42;16.20;99.90
21646;DHT22;10984;45.712;4.800;2022-10-26T03:41:07;16.10;99.90
21646;DHT22;10984;45.712;4.800;2022-10-26T03:43:33;16.10;99.90
21646;DHT22;10984;45.712;4.800;2022-10-26T03:45:59;16.00;99.90
21646;DHT22;10984;45.712;4.800;2022-10-26T03:48:24;15.90;99.90
21646;DHT22;10984;45.712;4.800;2022-10-26T03:50:50;15.80;99.90
21646;DHT22;10984;45.712;4.800;2022-10-26T03:53:16;15.80;99.90
21646;DHT22;10984;45.712;4.800;2022-10-26T03:56:00;15.70;99.90
21646;DHT22;10984;45.712;4.800;2022-10-26T03:58:26;15.60;99.90
21646;DHT22;10984;45.712;4.800;2022-10-26T04:00:51;15.60;99.90
21646;DHT22;10984;45.712;4.800;2022-10-26T04:03:17;15.50;99.90
21646;DHT22;10984;45.712;4.800;2022-10-26T04:05:43;15.50;99.90
21646;DHT22;10984;45.712;4.800;2022-10-26T04:08:08;15.50;99.90
21646;DHT22;10984;45.712;4.800;2022-10-26T04:10:35;15.40;99.90
21646;DHT22;10984;45.712;4.800;2022-10-26T04:13:01;15.40;99.90
21646;DHT22;10984;45.712;4.800;2022-10-26T04:15:28;15.30;99.90
21646;DHT22;10984;45.712;4.800;2022-10-26T04:18:12;15.20;99.90
21646;DHT22;10984;45.712;4.800;2022-10-26T04:20:39;15.20;99.90
21646;DHT22;10984;45.712;4.800;2022-10-26T04:23:09;15.10;99.90
21646;DHT22;10984;45.712;4.800;2022-10-26T04:25:35;15.00;99.90
21646;DHT22;10984;45.712;4.800;2022-10-26T04:28:02;15.00;99.90
21646;DHT22;10984;45.712;4.800;2022-10-26T04:30:28;14.90;99.90
21646;DHT22;10984;45.712;4.800;2022-10-26T04:32:54;14.90;99.90
21646;DHT22;10984;45.712;4.800;2022-10-26T04:35:19;14.80;99.90
21646;DHT22;10984;45.712;4.800;2022-10-26T04:37:45;14.80;99.90
21646;DHT22;10984;45.712;4.800;2022-10-26T04:40:11;14.80;99.90
21646;DHT22;10984;45.712;4.800;2022-10-26T04:42:55;14.80;99.90
21646;DHT22;10984;45.712;4.800;2022-10-26T04:45:21;14.80;99.90
21646;DHT22;10984;45.712;4.800;2022-10-26T04:47:57;14.70;99.90
21646;DHT22;10984;45.712;4.800;2022-10-26T04:50:23;14.70;99.90
21646;DHT22;10984;45.712;4.800;2022-10-26T04:52:49;14.70;99.90
21646;DHT22;10984;45.712;4.800;2022-10-26T04:55:15;14.60;99.90
21646;DHT22;10984;45.712;4.800;2022-10-26T04:57:43;14.60;99.90
21646;DHT22;10984;45.712;4.800;2022-10-26T05:00:09;14.60;99.90
21646;DHT22;10984;45.712;4.800;2022-10-26T05:02:35;14.50;99.90
21646;DHT22;10984;45.712;4.800;2022-10-26T05:05:01;14.50;99.90
21646;DHT22;10984;45.712;4.800;2022-10-26T05:07:26;14.50;99.90
21646;DHT22;10984;45.712;4.800;2022-10-26T05:09:52;14.50;99.90
21646;DHT22;10984;45.712;4.800;2022-10-26T05:12:18;14.50;99.90
21646;DHT22;10984;45.712;4.800;2022-10-26T05:14:43;14.50;99.90
21646;DHT22;10984;45.712;4.800;2022-10-26T05:17:09;14.40;99.90
21646;DHT22;10984;45.712;4.800;2022-10-26T05:19:35;14.30;99.90
21646;DHT22;10984;45.712;4.800;2022-10-26T05:22:00;14.30;99.90
21646;DHT22;10984;45.712;4.800;2022-10-26T05:24:26;14.30;99.90
21646;DHT22;10984;45.712;4.800;2022-10-26T05:26:51;14.30;99.90
21646;DHT22;10984;45.712;4.800;2022-10-26T05:29:17;14.20;99.90
21646;DHT22;10984;45.712;4.800;2022-10-26T05:31:43;14.20;99.90
21646;DHT22;10984;45.712;4.800;2022-10-26T05:34:08;14.20;99.90
21646;DHT22;10984;45.712;4.800;2022-10-26T05:36:34;14.20;99.90
21646;DHT22;10984;45.712;4.800;2022-10-26T05:39:00;14.20;99.90
21646;DHT22;10984;45.712;4.800;2022-10-26T05:41:25;14.20;99.90
21646;DHT22;10984;45.712;4.800;2022-10-26T05:43:51;14.10;99.90
21646;DHT22;10984;45.712;4.800;2022-10-26T05:46:17;14.10;99.90
21646;DHT22;10984;45.712;4.800;2022-10-26T05:48:42;14.10;99.90
21646;DHT22;10984;45.712;4.800;2022-10-26T05:51:08;14.10;99.90
21646;DHT22;10984;45.712;4.800;2022-10-26T05:53:35;14.10;99.90
21646;DHT22;10984;45.712;4.800;2022-10-26T05:56:01;14.10;99.90
21646;DHT22;10984;45.712;4.800;2022-10-26T05:58:26;14.10;99.90
21646;DHT22;10984;45.712;4.800;2022-10-26T06:07:01;14.00;99.90
21646;DHT22;10984;45.712;4.800;2022-10-26T06:09:27;14.00;99.90
21646;DHT22;10984;45.712;4.800;2022-10-26T06:11:53;14.00;99.90
21646;DHT22;10984;45.712;4.800;2022-10-26T06:14:19;14.00;99.90
21646;DHT22;10984;45.712;4.800;2022-10-26T06:28:46;14.00;99.90
21646;DHT22;10984;45.712;4.800;2022-10-26T06:31:14;14.00;99.90
21646;DHT22;10984;45.712;4.800;2022-10-26T06:33:40;14.10;99.90
21646;DHT22;10984;45.712;4.800;2022-10-26T06:39:10;14.10;99.90
21646;DHT22;10984;45.712;4.800;2022-10-26T06:41:37;14.20;99.90
21646;DHT22;10984;45.712;4.800;2022-10-26T06:44:03;14.20;99.90
21646;DHT22;10984;45.712;4.800;2022-10-26T06:52:22;14.40;99.90
21646;DHT22;10984;45.712;4.800;2022-10-26T06:54:53;14.50;99.90
21646;DHT22;10984;45.712;4.800;2022-10-26T06:57:21;14.60;99.90
21646;DHT22;10984;45.712;4.800;2022-10-26T07:00:08;14.70;99.90
21646;DHT22;10984;45.712;4.800;2022-10-26T07:02:39;14.80;99.90
21646;DHT22;10984;45.712;4.800;2022-10-26T07:05:04;14.90;99.90
21646;DHT22;10984;45.712;4.800;2022-10-26T07:07:36;15.00;99.90
21646;DHT22;10984;45.712;4.800;2022-10-26T07:10:03;15.10;99.90
21646;DHT22;10984;45.712;4.800;2022-10-26T07:12:28;15.20;99.90
21646;DHT22;10984;45.712;4.800;2022-10-26T07:14:54;15.30;99.90
21646;DHT22;10984;45.712;4.800;2022-10-26T07:17:20;15.30;99.90
21646;DHT22;10984;45.712;4.800;2022-10-26T07:19:45;15.40;99.90
21646;DHT22;10984;45.712;4.800;2022-10-26T07:22:11;15.50;99.90
21646;DHT22;10984;45.712;4.800;2022-10-26T07:24:37;15.60;99.90
21646;DHT22;10984;45.712;4.800;2022-10-26T07:27:03;15.70;99.90
21646;DHT22;10984;45.712;4.800;2022-10-26T07:29:28;15.80;99.90
21646;DHT22;10984;45.712;4.800;2022-10-26T07:31:54;15.90;99.90
21646;DHT22;10984;45.712;4.800;2022-10-26T07:34:20;16.10;99.90
21646;DHT22;10984;45.712;4.800;2022-10-26T07:36:45;16.20;99.90
21646;DHT22;10984;45.712;4.800;2022-10-26T07:39:11;16.30;99.90
21646;DHT22;10984;45.712;4.800;2022-10-26T07:41:37;16.40;99.90
21646;DHT22;10984;45.712;4.800;2022-10-26T07:44:03;16.50;99.90
21646;DHT22;10984;45.712;4.800;2022-10-26T07:46:28;16.50;99.90
21646;DHT22;10984;45.712;4.800;2022-10-26T07:48:54;16.60;99.90
21646;DHT22;10984;45.712;4.800;2022-10-26T07:51:20;16.70;99.90
21646;DHT22;10984;45.712;4.800;2022-10-26T07:53:46;16.70;99.90
21646;DHT22;10984;45.712;4.800;2022-10-26T07:56:12;16.80;99.90
21646;DHT22;10984;45.712;4.800;2022-10-26T07:58:38;16.90;99.90
21646;DHT22;10984;45.712;4.800;2022-10-26T08:01:22;17.00;99.90
21646;DHT22;10984;45.712;4.800;2022-10-26T08:03:51;17.10;99.90
21646;DHT22;10984;45.712;4.800;2022-10-26T08:06:17;17.20;99.90
21646;DHT22;10984;45.712;4.800;2022-10-26T08:08:43;17.30;99.90
21646;DHT22;10984;45.712;4.800;2022-10-26T08:11:08;17.40;99.90
21646;DHT22;10984;45.712;4.800;2022-10-26T08:13:34;17.50;99.90
21646;DHT22;10984;45.712;4.800;2022-10-26T08:16:03;17.60;99.90
21646;DHT22;10984;45.712;4.800;2022-10-26T08:18:29;17.60;99.90
21646;DHT22;10984;45.712;4.800;2022-10-26T08:20:59;17.70;99.90
21646;DHT22;10984;45.712;4.800;2022-10-26T08:23:25;17.70;99.90
21646;DHT22;10984;45.712;4.800;2022-10-26T08:25:51;17.80;99.90
21646;DHT22;10984;45.712;4.800;2022-10-26T08:28:16;17.80;99.90
21646;DHT22;10984;45.712;4.800;2022-10-26T08:30:42;17.90;99.90
21646;DHT22;10984;45.712;4.800;2022-10-26T08:33:09;18.00;99.90
21646;DHT22;10984;45.712;4.800;2022-10-26T08:35:35;18.00;99.90
21646;DHT22;10984;45.712;4.800;2022-10-26T08:38:01;18.00;99.90
21646;DHT22;10984;45.712;4.800;2022-10-26T08:40:45;18.10;99.90
21646;DHT22;10984;45.712;4.800;2022-10-26T08:43:39;18.10;99.90
21646;DHT22;10984;45.712;4.800;2022-10-26T08:48:55;18.20;99.90
21646;DHT22;10984;45.712;4.800;2022-10-26T08:51:26;18.30;99.90
21646;DHT22;10984;45.712;4.800;2022-10-26T08:59:46;18.50;99.90
21646;DHT22;10984;45.712;4.800;2022-10-26T09:02:15;18.60;99.90
21646;DHT22;10984;45.712;4.800;2022-10-26T09:04:42;18.70;99.90
21646;DHT22;10984;45.712;4.800;2022-10-26T09:24:41;19.10;99.90
21646;DHT22;10984;45.712;4.800;2022-10-26T09:27:29;19.20;99.90
21646;DHT22;10984;45.712;4.800;2022-10-26T09:29:57;19.30;99.90
21646;DHT22;10984;45.712;4.800;2022-10-26T09:50:15;19.80;99.90
21646;DHT22;10984;45.712;4.800;2022-10-26T09:52:42;19.90;99.90
21646;DHT22;10984;45.712;4.800;2022-10-26T09:55:29;20.00;99.90
21646;DHT22;10984;45.712;4.800;2022-10-26T09:57:57;20.10;99.90
21646;DHT22;10984;45.712;4.800;2022-10-26T10:00:26;20.10;99.90
21646;DHT22;10984;45.712;4.800;2022-10-26T10:02:55;20.20;99.90
21646;DHT22;10984;45.712;4.800;2022-10-26T10:05:40;20.20;99.90
21646;DHT22;10984;45.712;4.800;2022-10-26T10:08:24;20.10;99.90
21646;DHT22;10984;45.712;4.800;2022-10-26T10:13:53;20.10;99.90
21646;DHT22;10984;45.712;4.800;2022-10-26T10:16:21;20.10;99.90
21646;DHT22;10984;45.712;4.800;2022-10-26T10:19:09;20.10;99.90
21646;DHT22;10984;45.712;4.800;2022-10-26T10:21:49;20.10;99.90
21646;DHT22;10984;45.712;4.800;2022-10-26T10:24:34;20.30;99.90
21646;DHT22;10984;45.712;4.800;2022-10-26T10:32:30;20.80;99.90
21646;DHT22;10984;45.712;4.800;2022-10-26T10:34:58;20.90;99.90
21646;DHT22;10984;45.712;4.800;2022-10-26T10:37:43;21.00;99.90
21646;DHT22;10984;45.712;4.800;2022-10-26T10:40:29;21.00;99.90
21646;DHT22;10984;45.712;4.800;2022-10-26T10:43:14;21.20;99.90
21646;DHT22;10984;45.712;4.800;2022-10-26T10:45:40;21.20;99.90
21646;DHT22;10984;45.712;4.800;2022-10-26T10:50:38;21.20;99.90
21646;DHT22;10984;45.712;4.800;2022-10-26T11:08:21;21.80;99.90
21646;DHT22;10984;45.712;4.800;2022-10-26T11:11:08;21.80;99.90
21646;DHT22;10984;45.712;4.800;2022-10-26T11:22:28;21.80;99.90
21646;DHT22;10984;45.712;4.800;2022-10-26T11:25:04;21.70;99.90
21646;DHT22;10984;45.712;4.800;2022-10-26T11:27:51;21.70;99.90
21646;DHT22;10984;45.712;4.800;2022-10-26T11:30:39;21.70;99.90
21646;DHT22;10984;45.712;4.800;2022-10-26T11:36:17;21.70;99.90
21646;DHT22;10984;45.712;4.800;2022-10-26T11:50:44;21.70;99.90
21646;DHT22;10984;45.712;4.800;2022-10-26T11:53:30;21.60;99.90
21646;DHT22;10984;45.712;4.800;2022-10-26T11:55:58;21.50;99.90
21646;DHT22;10984;45.712;4.800;2022-10-26T11:58:26;21.40;99.90
21646;DHT22;10984;45.712;4.800;2022-10-26T12:00:57;21.30;99.90
21646;DHT22;10984;45.712;4.800;2022-10-26T12:03:31;21.40;99.90
21646;DHT22;10984;45.712;4.800;2022-10-26T12:05:57;21.50;99.90
21646;DHT22;10984;45.712;4.800;2022-10-26T12:08:29;21.70;99.90
21646;DHT22;10984;45.712;4.800;2022-10-26T12:22:16;23.00;99.90
21646;DHT22;10984;45.712;4.800;2022-10-26T12:30:31;23.50;99.90
21646;DHT22;10984;45.712;4.800;2022-10-26T12:36:00;23.60;99.90
21646;DHT22;10984;45.712;4.800;2022-10-26T12:41:30;23.50;99.90
21646;DHT22;10984;45.712;4.800;2022-10-26T12:44:01;23.50;99.90
21646;DHT22;10984;45.712;4.800;2022-10-26T12:48:53;23.40;99.90
21646;DHT22;10984;45.712;4.800;2022-10-26T13:08:24;23.30;99.90
21646;DHT22;10984;45.712;4.800;2022-10-26T13:14:04;23.30;99.90
21646;DHT22;10984;45.712;4.800;2022-10-26T13:16:30;23.20;99.90
21646;DHT22;10984;45.712;4.800;2022-10-26T13:18:57;23.20;99.90
21646;DHT22;10984;45.712;4.800;2022-10-26T13:21:24;23.10;99.90
21646;DHT22;10984;45.712;4.800;2022-10-26T13:24:10;23.00;99.90
21646;DHT22;10984;45.712;4.800;2022-10-26T13:33:05;22.80;99.90
21646;DHT22;10984;45.712;4.800;2022-10-26T13:35:32;22.70;99.90
21646;DHT22;10984;45.712;4.800;2022-10-26T13:37:59;22.70;99.90
21646;DHT22;10984;45.712;4.800;2022-10-26T13:40:28;22.60;99.90
21646;DHT22;10984;45.712;4.800;2022-10-26T13:46:21;22.50;99.90
21646;DHT22;10984;45.712;4.800;2022-10-26T13:48:47;22.40;99.90
21646;DHT22;10984;45.712;4.800;2022-10-26T13:51:38;22.40;99.90
21646;DHT22;10984;45.712;4.800;2022-10-26T13:59:37;22.30;99.90
21646;DHT22;10984;45.712;4.800;2022-10-26T14:02:24;22.30;99.90
21646;DHT22;10984;45.712;4.800;2022-10-26T14:05:09;22.20;99.90
21646;DHT22;10984;45.712;4.800;2022-10-26T14:13:28;22.10;99.90
21646;DHT22;10984;45.712;4.800;2022-10-26T14:15:57;22.00;99.90
21646;DHT22;10984;45.712;4.800;2022-10-26T14:18:25;21.90;99.90
21646;DHT22;10984;45.712;4.800;2022-10-26T14:21:12;21.90;99.90
21646;DHT22;10984;45.712;4.800;2022-10-26T14:23:59;21.90;99.90
21646;DHT22;10984;45.712;4.800;2022-10-26T14:26:36;21.80;99.90
21646;DHT22;10984;45.712;4.800;2022-10-26T14:29:03;21.80;99.90
21646;DHT22;10984;45.712;4.800;2022-10-26T14:31:32;21.90;99.90
21646;DHT22;10984;45.712;4.800;2022-10-26T14:34:00;21.80;99.90
21646;DHT22;10984;45.712;4.800;2022-10-26T14:39:49;22.00;99.90
21646;DHT22;10984;45.712;4.800;2022-10-26T14:42:25;22.00;99.90
21646;DHT22;10984;45.712;4.800;2022-10-26T14:44:52;22.10;99.90
21646;DHT22;10984;45.712;4.800;2022-10-26T14:47:36;22.20;99.90
21646;DHT22;10984;45.712;4.800;2022-10-26T14:50:03;22.10;99.90
21646;DHT22;10984;45.712;4.800;2022-10-26T14:55:46;22.10;99.90
21646;DHT22;10984;45.712;4.800;2022-10-26T15:16:23;21.90;99.90
21646;DHT22;10984;45.712;4.800;2022-10-26T15:19:08;21.90;99.90
21646;DHT22;10984;45.712;4.800;2022-10-26T15:21:54;21.90;99.90
21646;DHT22;10984;45.712;4.800;2022-10-26T15:26:46;21.90;99.90
21646;DHT22;10984;45.712;4.800;2022-10-26T15:32:33;21.90;99.90
21646;DHT22;10984;45.712;4.800;2022-10-26T15:37:44;21.80;99.90
21646;DHT22;10984;45.712;4.800;2022-10-26T15:40:11;21.70;99.90
21646;DHT22;10984;45.712;4.800;2022-10-26T15:42:38;21.70;99.90
21646;DHT22;10984;45.712;4.800;2022-10-26T15:47:39;21.70;99.90
21646;DHT22;10984;45.712;4.800;2022-10-26T15:50:07;21.70;99.90
21646;DHT22;10984;45.712;4.800;2022-10-26T15:52:33;21.70;99.90
21646;DHT22;10984;45.712;4.800;2022-10-26T15:54:59;21.60;99.90
21646;DHT22;10984;45.712;4.800;2022-10-26T15:57:25;21.60;99.90
21646;DHT22;10984;45.712;4.800;2022-10-26T15:59:51;21.50;99.90
21646;DHT22;10984;45.712;4.800;2022-10-26T16:02:17;21.40;99.90
21646;DHT22;10984;45.712;4.800;2022-10-26T16:04:42;21.30;99.90
21646;DHT22;10984;45.712;4.800;2022-10-26T16:07:12;21.20;99.90
21646;DHT22;10984;45.712;4.800;2022-10-26T16:09:39;21.10;99.90
21646;DHT22;10984;45.712;4.800;2022-10-26T16:12:07;20.90;99.90
21646;DHT22;10984;45.712;4.800;2022-10-26T16:14:34;20.70;99.90
21646;DHT22;10984;45.712;4.800;2022-10-26T16:16:59;20.60;99.90
21646;DHT22;10984;45.712;4.800;2022-10-26T16:19:25;20.40;99.90
21646;DHT22;10984;45.712;4.800;2022-10-26T16:21:50;20.30;99.90
21646;DHT22;10984;45.712;4.800;2022-10-26T16:24:16;20.20;99.90
21646;DHT22;10984;45.712;4.800;2022-10-26T16:26:42;20.10;99.90
21646;DHT22;10984;45.712;4.800;2022-10-26T16:29:08;20.00;99.90
21646;DHT22;10984;45.712;4.800;2022-10-26T16:31:33;20.00;99.90
21646;DHT22;10984;45.712;4.800;2022-10-26T16:33:59;19.90;99.90
21646;DHT22;10984;45.712;4.800;2022-10-26T16:36:25;19.80;99.90
21646;DHT22;10984;45.712;4.800;2022-10-26T16:38:50;19.70;99.90
21646;DHT22;10984;45.712;4.800;2022-10-26T16:41:16;19.60;99.90
21646;DHT22;10984;45.712;4.800;2022-10-26T16:43:43;19.60;99.90
21646;DHT22;10984;45.712;4.800;2022-10-26T16:46:13;19.50;99.90
21646;DHT22;10984;45.712;4.800;2022-10-26T16:48:40;19.50;99.90
21646;DHT22;10984;45.712;4.800;2022-10-26T16:51:08;19.40;99.90
21646;DHT22;10984;45.712;4.800;2022-10-26T16:53:35;19.40;99.90
21646;DHT22;10984;45.712;4.800;2022-10-26T16:56:05;19.30;99.90
21646;DHT22;10984;45.712;4.800;2022-10-26T16:58:32;19.30;99.90
21646;DHT22;10984;45.712;4.800;2022-10-26T17:00:57;19.30;99.90
21646;DHT22;10984;45.712;4.800;2022-10-26T17:03:23;19.30;99.90
21646;DHT22;10984;45.712;4.800;2022-10-26T17:06:08;19.20;99.90
21646;DHT22;10984;45.712;4.800;2022-10-26T17:08:34;19.20;99.90
21646;DHT22;10984;45.712;4.800;2022-10-26T17:11:03;19.20;99.90
21646;DHT22;10984;45.712;4.800;2022-10-26T17:13:29;19.10;99.90
21646;DHT22;10984;45.712;4.800;2022-10-26T17:16:00;19.10;99.90
21646;DHT22;10984;45.712;4.800;2022-10-26T17:18:26;19.10;99.90
21646;DHT22;10984;45.712;4.800;2022-10-26T17:20:52;19.00;99.90
21646;DHT22;10984;45.712;4.800;2022-10-26T17:23:18;19.00;99.90
21646;DHT22;10984;45.712;4.800;2022-10-26T17:25:43;19.00;99.90
21646;DHT22;10984;45.712;4.800;2022-10-26T17:28:10;19.00;99.90
21646;DHT22;10984;45.712;4.800;2022-10-26T17:30:35;19.00;99.90
21646;DHT22;10984;45.712;4.800;2022-10-26T17:33:02;19.00;99.90
21646;DHT22;10984;45.712;4.800;2022-10-26T17:35:28;18.90;99.90
21646;DHT22;10984;45.712;4.800;2022-10-26T17:37:53;19.00;99.90
21646;DHT22;10984;45.712;4.800;2022-10-26T17:40:19;19.00;99.90
21646;DHT22;10984;45.712;4.800;2022-10-26T17:42:45;19.00;99.90
21646;DHT22;10984;45.712;4.800;2022-10-26T17:45:10;19.00;99.90
21646;DHT22;10984;45.712;4.800;2022-10-26T17:47:36;19.00;99.90
21646;DHT22;10984;45.712;4.800;2022-10-26T17:50:02;19.00;99.90
21646;DHT22;10984;45.712;4.800;2022-10-26T17:52:29;19.00;99.90
21646;DHT22;10984;45.712;4.800;2022-10-26T17:54:55;19.00;99.90
21646;DHT22;10984;45.712;4.800;2022-10-26T17:57:21;19.00;99.90
21646;DHT22;10984;45.712;4.800;2022-10-26T17:59:46;18.90;99.90
21646;DHT22;10984;45.712;4.800;2022-10-26T18:02:12;18.90;99.90
21646;DHT22;10984;45.712;4.800;2022-10-26T18:04:38;18.90;99.90
21646;DHT22;10984;45.712;4.800;2022-10-26T18:07:04;18.90;99.90
21646;DHT22;10984;45.712;4.800;2022-10-26T18:09:29;18.90;99.90
21646;DHT22;10984;45.712;4.800;2022-10-26T18:11:55;18.90;99.90
21646;DHT22;10984;45.712;4.800;2022-10-26T18:14:21;18.90;99.90
21646;DHT22;10984;45.712;4.800;2022-10-26T18:16:47;18.90;99.90
21646;DHT22;10984;45.712;4.800;2022-10-26T18:19:12;18.90;99.90
21646;DHT22;10984;45.712;4.800;2022-10-26T18:21:38;18.90;99.90
21646;DHT22;10984;45.712;4.800;2022-10-26T18:24:22;18.80;99.90
21646;DHT22;10984;45.712;4.800;2022-10-26T18:26:48;18.80;99.90
21646;DHT22;10984;45.712;4.800;2022-10-26T18:29:14;18.80;99.90
21646;DHT22;10984;45.712;4.800;2022-10-26T18:31:40;18.80;99.90
21646;DHT22;10984;45.712;4.800;2022-10-26T18:34:09;18.80;99.90
21646;DHT22;10984;45.712;4.800;2022-10-26T18:36:34;18.80;99.90
21646;DHT22;10984;45.712;4.800;2022-10-26T18:39:00;18.80;99.90
21646;DHT22;10984;45.712;4.800;2022-10-26T18:41:26;18.70;99.90
21646;DHT22;10984;45.712;4.800;2022-10-26T18:43:54;18.70;99.90
21646;DHT22;10984;45.712;4.800;2022-10-26T18:46:25;18.60;99.90
21646;DHT22;10984;45.712;4.800;2022-10-26T18:49:11;18.60;99.90
21646;DHT22;10984;45.712;4.800;2022-10-26T18:51:38;18.60;99.90
21646;DHT22;10984;45.712;4.800;2022-10-26T18:54:04;18.60;99.90
21646;DHT22;10984;45.712;4.800;2022-10-26T18:56:29;18.50;99.90
21646;DHT22;10984;45.712;4.800;2022-10-26T18:58:56;18.50;99.90
21646;DHT22;10984;45.712;4.800;2022-10-26T19:01:25;18.50;99.90
21646;DHT22;10984;45.712;4.800;2022-10-26T19:04:10;18.50;99.90
21646;DHT22;10984;45.712;4.800;2022-10-26T19:06:55;18.40;99.90
21646;DHT22;10984;45.712;4.800;2022-10-26T19:09:20;18.40;99.90
21646;DHT22;10984;45.712;4.800;2022-10-26T19:11:46;18.40;99.90
21646;DHT22;10984;45.712;4.800;2022-10-26T19:14:12;18.40;99.90
21646;DHT22;10984;45.712;4.800;2022-10-26T19:16:38;18.30;99.90
21646;DHT22;10984;45.712;4.800;2022-10-26T19:19:04;18.30;99.90
21646;DHT22;10984;45.712;4.800;2022-10-26T19:21:49;18.30;99.90
21646;DHT22;10984;45.712;4.800;2022-10-26T19:24:16;18.30;99.90
21646;DHT22;10984;45.712;4.800;2022-10-26T19:26:44;18.30;99.90
21646;DHT22;10984;45.712;4.800;2022-10-26T19:29:12;18.30;99.90
21646;DHT22;10984;45.712;4.800;2022-10-26T19:31:39;18.20;99.90
21646;DHT22;10984;45.712;4.800;2022-10-26T19:34:05;18.20;99.90
21646;DHT22;10984;45.712;4.800;2022-10-26T19:36:31;18.20;99.90
21646;DHT22;10984;45.712;4.800;2022-10-26T19:38:57;18.20;99.90
21646;DHT22;10984;45.712;4.800;2022-10-26T19:41:23;18.20;99.90
21646;DHT22;10984;45.712;4.800;2022-10-26T19:43:55;18.10;99.90
21646;DHT22;10984;45.712;4.800;2022-10-26T19:46:24;18.10;99.90
21646;DHT22;10984;45.712;4.800;2022-10-26T19:48:52;18.10;99.90
21646;DHT22;10984;45.712;4.800;2022-10-26T19:51:19;18.10;99.90
21646;DHT22;10984;45.712;4.800;2022-10-26T19:53:45;18.10;99.90
21646;DHT22;10984;45.712;4.800;2022-10-26T19:56:12;18.00;99.90
21646;DHT22;10984;45.712;4.800;2022-10-26T19:58:42;18.00;99.90
21646;DHT22;10984;45.712;4.800;2022-10-26T20:01:10;18.00;99.90
21646;DHT22;10984;45.712;4.800;2022-10-26T20:03:36;18.00;99.90
21646;DHT22;10984;45.712;4.800;2022-10-26T20:06:04;17.90;99.90
21646;DHT22;10984;45.712;4.800;2022-10-26T20:08:33;17.90;99.90
21646;DHT22;10984;45.712;4.800;2022-10-26T20:11:00;17.80;99.90
21646;DHT22;10984;45.712;4.800;2022-10-26T20:13:26;17.70;99.90
21646;DHT22;10984;45.712;4.800;2022-10-26T20:15:52;17.70;99.90
21646;DHT22;10984;45.712;4.800;2022-10-26T20:18:18;17.60;99.90
21646;DHT22;10984;45.712;4.800;2022-10-26T20:20:44;17.50;99.90
21646;DHT22;10984;45.712;4.800;2022-10-26T20:23:10;17.40;99.90